createdAt,value
2022-10-20T00:00:12.468Z,29.80
2022-10-20T00:03:40.372Z,30.10
2022-10-20T00:07:09.093Z,28.80
2022-10-20T00:10:00.171Z,29.10
2022-10-20T00:16:42.192Z,28.70
2022-10-20T00:19:42.947Z,31.50
2022-10-20T00:26:43.739Z,27.20
2022-10-20T00:33:53.192Z,26.50
2022-10-20T00:42:49.141Z,25.90
2022-10-20T00:49:01.077Z,25.90
2022-10-20T01:10:11.334Z,25.10
2022-10-20T01:18:10.466Z,22.80
2022-10-20T01:21:30.871Z,22.90
2022-10-20T01:25:15.309Z,22.30
2022-10-20T01:28:49.586Z,23.00
2022-10-20T01:32:08.492Z,23.60
2022-10-20T01:35:24.087Z,21.10
2022-10-20T01:38:16.494Z,21.50
2022-10-20T01:41:53.418Z,20.70
2022-10-20T01:44:46.932Z,21.80
2022-10-20T02:19:36.859Z,31.50
2022-10-20T02:29:44.600Z,40.00
2022-10-20T02:33:33.540Z,47.60
2022-10-20T02:36:21.202Z,49.10
2022-10-20T02:43:13.281Z,44.90
2022-10-20T02:46:35.368Z,40.50
2022-10-20T02:49:49.412Z,42.70
2022-10-20T02:54:23.446Z,43.30
2022-10-20T02:56:18.553Z,40.30
2022-10-20T02:59:47.896Z,45.10
2022-10-20T03:03:11.874Z,45.70
2022-10-20T03:11:29.039Z,43.30
2022-10-20T03:16:39.995Z,49.80
2022-10-20T03:23:20.448Z,172.80
2022-10-20T03:33:40.785Z,196.80
2022-10-20T03:36:48.039Z,217.50
2022-10-20T03:40:00.238Z,168.10
2022-10-20T03:54:02.264Z,84.80
2022-10-20T03:57:10.072Z,62.70
2022-10-20T04:00:06.346Z,50.10
2022-10-20T04:03:13.709Z,50.00
2022-10-20T04:06:16.576Z,52.60
2022-10-20T04:15:30.319Z,62.30
2022-10-20T04:21:58.469Z,41.20
2022-10-20T04:24:47.507Z,40.20
2022-10-20T04:27:49.658Z,40.00
2022-10-20T04:31:00.618Z,43.80
2022-10-20T04:37:12.066Z,59.20
2022-10-20T04:40:04.761Z,56.50
2022-10-20T04:42:53.893Z,52.30
2022-10-20T04:46:09.313Z,53.80
2022-10-20T04:49:30.593Z,56.90
2022-10-20T04:53:03.980Z,62.70
2022-10-20T04:56:22.026Z,109.40
2022-10-20T04:59:32.701Z,173.00
2022-10-20T05:03:01.017Z,150.60
2022-10-20T05:06:06.021Z,110.80
2022-10-20T05:08:54.726Z,80.60
2022-10-20T05:11:34.527Z,66.30
2022-10-20T05:16:35.677Z,61.40
2022-10-20T05:18:40.111Z,54.70
2022-10-20T05:22:09.255Z,52.20
2022-10-20T05:25:35.651Z,57.10
2022-10-20T05:29:08.309Z,59.90
2022-10-20T05:32:27.455Z,72.00
2022-10-20T05:36:22.723Z,66.90
2022-10-20T05:38:46.324Z,54.90
2022-10-20T05:41:52.535Z,80.20
2022-10-20T05:44:50.784Z,61.60
2022-10-20T05:47:40.497Z,79.20
2022-10-20T05:50:54.088Z,75.10
2022-10-20T05:53:41.347Z,64.10
2022-10-20T05:56:36.340Z,71.00
2022-10-20T05:59:49.552Z,69.00
2022-10-20T06:03:19.863Z,64.10
2022-10-20T06:10:44.401Z,56.40
2022-10-20T06:13:39.728Z,62.80
2022-10-20T06:16:34.873Z,59.70
2022-10-20T06:19:28.686Z,70.50
2022-10-20T06:22:05.969Z,68.30
2022-10-20T06:24:51.692Z,77.80
2022-10-20T06:27:20.828Z,71.90
2022-10-20T06:30:00.725Z,84.70
2022-10-20T06:33:20.477Z,75.90
2022-10-20T06:36:40.824Z,80.70
2022-10-20T06:39:29.111Z,88.10
2022-10-20T06:42:26.259Z,86.90
2022-10-20T06:45:22.851Z,75.70
2022-10-20T06:48:11.512Z,73.30
2022-10-20T06:51:42.982Z,78.10
2022-10-20T06:54:53.207Z,145.80
2022-10-20T06:57:56.519Z,62.00
2022-10-20T07:01:05.571Z,55.90
2022-10-20T07:10:12.714Z,53.30
2022-10-20T07:16:28.694Z,58.40
2022-10-20T07:19:33.928Z,58.20
2022-10-20T07:25:40.921Z,65.60
2022-10-20T07:28:30.826Z,59.30
2022-10-20T07:31:10.676Z,62.30
2022-10-20T07:34:32.273Z,53.30
2022-10-20T07:37:36.058Z,54.40
2022-10-20T07:40:35.191Z,53.20
2022-10-20T07:43:37.979Z,52.40
2022-10-20T07:46:15.960Z,50.20
2022-10-20T07:49:31.435Z,46.60
2022-10-20T07:51:51.974Z,52.80
2022-10-20T07:54:24.595Z,50.80
2022-10-20T07:56:56.314Z,49.30
2022-10-20T07:59:26.055Z,48.80
2022-10-20T08:01:59.555Z,46.70
2022-10-20T08:04:31.860Z,43.70
2022-10-20T08:07:04.192Z,40.20
2022-10-20T08:09:34.581Z,39.70
2022-10-20T08:12:06.352Z,31.80
2022-10-20T08:14:39.188Z,33.20
2022-10-20T08:17:11.478Z,30.70
2022-10-20T08:22:27.238Z,27.70
2022-10-20T08:25:01.581Z,21.30
2022-10-20T08:27:46.495Z,22.80
2022-10-20T08:30:24.160Z,19.40
2022-10-20T08:33:52.138Z,18.20
2022-10-20T08:36:50.805Z,18.40
2022-10-20T08:39:28.190Z,15.50
2022-10-20T08:45:19.846Z,16.30
2022-10-20T08:48:34.780Z,21.50
2022-10-20T08:51:42.509Z,31.30
2022-10-20T08:54:26.566Z,21.70
2022-10-20T08:57:10.240Z,15.10
2022-10-20T08:59:48.801Z,14.20
2022-10-20T09:02:27.603Z,14.40
2022-10-20T09:05:16.777Z,14.00
2022-10-20T09:08:07.863Z,11.20
2022-10-20T09:10:54.101Z,13.00
2022-10-20T09:13:46.085Z,11.40
2022-10-20T09:16:55.383Z,9.80
2022-10-20T09:20:28.279Z,10.60
2022-10-20T09:23:28.363Z,8.90
2022-10-20T09:27:05.249Z,10.10
2022-10-20T09:29:53.683Z,9.90
2022-10-20T09:32:47.837Z,9.90
2022-10-20T09:35:31.695Z,11.00
2022-10-20T09:38:36.874Z,8.70
2022-10-20T09:41:44.140Z,8.50
2022-10-20T09:48:33.216Z,8.30
2022-10-20T09:51:08.790Z,7.50
2022-10-20T09:54:16.049Z,8.20
2022-10-20T09:57:15.305Z,7.10
2022-10-20T10:00:25.206Z,7.50
2022-10-20T10:03:23.551Z,6.20
2022-10-20T10:06:54.014Z,6.30
2022-10-20T10:09:32.122Z,5.90
2022-10-20T10:12:20.803Z,7.10
2022-10-20T10:15:05.430Z,4.60
2022-10-20T10:17:46.607Z,5.40
2022-10-20T10:21:12.231Z,4.80
2022-10-20T10:24:07.850Z,3.80
2022-10-20T10:26:55.159Z,3.80
2022-10-20T10:29:37.496Z,3.10
2022-10-20T10:32:28.555Z,3.50
2022-10-20T10:35:10.199Z,4.10
2022-10-20T10:37:43.283Z,4.30
2022-10-20T10:40:32.767Z,4.00
2022-10-20T10:43:33.515Z,4.10
2022-10-20T10:46:16.835Z,3.40
2022-10-20T10:49:07.334Z,3.40
2022-10-20T10:52:16.874Z,2.90
2022-10-20T10:55:49.111Z,2.60
2022-10-20T10:58:37.618Z,2.80
2022-10-20T11:01:18.530Z,2.70
2022-10-20T11:04:14.274Z,2.10
2022-10-20T11:06:54.225Z,2.50
2022-10-20T11:09:35.405Z,2.50
2022-10-20T11:12:22.762Z,4.40
2022-10-20T11:15:27.086Z,5.20
2022-10-20T11:18:09.960Z,5.20
2022-10-20T11:21:02.644Z,3.20
2022-10-20T11:24:08.889Z,3.70
2022-10-20T11:26:44.001Z,2.90
2022-10-20T11:29:32.668Z,3.10
2022-10-20T11:32:16.955Z,3.60
2022-10-20T11:35:36.204Z,3.20
2022-10-20T11:38:39.578Z,2.90
2022-10-20T11:41:53.229Z,2.90
2022-10-20T11:44:46.083Z,3.20
2022-10-20T11:47:32.266Z,3.00
2022-10-20T11:50:05.571Z,3.60
2022-10-20T11:53:16.067Z,3.70
2022-10-20T11:56:03.535Z,3.50
2022-10-20T11:58:46.199Z,3.20
2022-10-20T12:02:29.589Z,3.20
2022-10-20T12:05:20.279Z,3.90
2022-10-20T12:08:46.824Z,3.80
2022-10-20T12:11:25.589Z,3.00
2022-10-20T12:14:15.625Z,2.40
2022-10-20T12:16:56.240Z,2.70
2022-10-20T12:19:30.762Z,3.10
2022-10-20T12:22:04.942Z,2.90
2022-10-20T12:24:37.474Z,2.50
2022-10-20T12:27:09.845Z,2.90
2022-10-20T12:29:43.643Z,2.80
2022-10-20T12:33:00.761Z,2.50
2022-10-20T12:36:01.619Z,2.60
2022-10-20T12:38:33.156Z,3.20
2022-10-20T12:41:03.132Z,3.20
2022-10-20T12:44:00.931Z,3.30
2022-10-20T12:46:46.107Z,2.80
2022-10-20T12:49:51.524Z,2.90
2022-10-20T12:52:29.111Z,2.60
2022-10-20T12:55:14.280Z,3.10
2022-10-20T12:57:46.244Z,4.00
2022-10-20T13:00:24.367Z,2.70
2022-10-20T13:02:58.255Z,3.20
2022-10-20T13:05:47.625Z,4.90
2022-10-20T13:08:21.007Z,2.90
2022-10-20T13:10:50.675Z,3.40
2022-10-20T13:13:19.829Z,3.10
2022-10-20T13:15:57.343Z,2.90
2022-10-20T13:18:31.832Z,3.30
2022-10-20T13:21:29.092Z,2.30
2022-10-20T13:24:16.244Z,4.70
2022-10-20T13:26:59.725Z,2.70
2022-10-20T13:29:37.033Z,2.50
2022-10-20T13:32:43.498Z,3.10
2022-10-20T13:35:47.439Z,4.60
2022-10-20T13:38:34.112Z,2.60
2022-10-20T13:41:42.483Z,2.50
2022-10-20T13:44:44.592Z,3.10
2022-10-20T13:47:28.711Z,2.70
2022-10-20T13:50:10.317Z,2.50
2022-10-20T13:52:50.666Z,2.50
2022-10-20T13:55:51.529Z,3.00
2022-10-20T13:58:26.845Z,3.00
2022-10-20T14:01:05.033Z,2.90
2022-10-20T14:03:44.793Z,3.30
2022-10-20T14:06:41.746Z,3.70
2022-10-20T14:09:31.396Z,2.80
2022-10-20T14:12:27.104Z,3.30
2022-10-20T14:15:01.982Z,3.30
2022-10-20T14:17:40.523Z,3.10
2022-10-20T14:20:41.849Z,3.60
2022-10-20T14:23:11.855Z,3.70
2022-10-20T14:25:41.895Z,3.40
2022-10-20T14:28:21.171Z,3.30
2022-10-20T14:30:52.479Z,3.10
2022-10-20T14:33:24.703Z,2.90
2022-10-20T14:36:08.218Z,3.60
2022-10-20T14:38:42.252Z,3.30
2022-10-20T14:41:33.113Z,3.60
2022-10-20T14:44:17.397Z,3.20
2022-10-20T14:46:59.950Z,4.30
2022-10-20T14:49:39.676Z,3.70
2022-10-20T14:52:21.251Z,4.30
2022-10-20T14:54:52.412Z,4.30
2022-10-20T14:57:26.329Z,5.90
2022-10-20T15:00:36.951Z,5.50
2022-10-20T15:03:12.714Z,4.20
2022-10-20T15:05:54.496Z,3.90
2022-10-20T15:08:33.038Z,3.70
2022-10-20T15:11:20.260Z,4.70
2022-10-20T15:13:54.129Z,5.70
2022-10-20T15:16:44.014Z,6.50
2022-10-20T15:19:37.676Z,7.90
2022-10-20T15:22:21.015Z,8.60
2022-10-20T15:24:56.345Z,14.50
2022-10-20T15:27:40.972Z,20.20
2022-10-20T15:30:21.932Z,14.20
2022-10-20T15:32:59.687Z,13.10
2022-10-20T15:35:31.167Z,13.90
2022-10-20T15:38:02.430Z,14.80
2022-10-20T15:40:37.793Z,15.80
2022-10-20T15:43:17.315Z,16.30
2022-10-20T15:45:53.687Z,15.80
2022-10-20T15:48:27.262Z,20.70
2022-10-20T15:51:04.692Z,18.90
2022-10-20T15:53:48.754Z,18.70
2022-10-20T15:56:29.522Z,15.20
2022-10-20T16:01:43.313Z,14.60
2022-10-20T16:04:31.417Z,13.80
2022-10-20T16:07:03.384Z,14.50
2022-10-20T16:09:32.629Z,13.80
2022-10-20T16:12:08.243Z,15.90
2022-10-20T16:14:40.000Z,15.30
2022-10-20T16:17:14.540Z,15.40
2022-10-20T16:19:51.212Z,15.80
2022-10-20T16:22:31.886Z,16.40
2022-10-20T16:25:03.964Z,17.30
2022-10-20T16:27:34.555Z,18.20
2022-10-20T16:30:12.046Z,23.40
2022-10-20T16:32:47.619Z,26.60
2022-10-20T16:35:22.029Z,26.80
2022-10-20T16:37:59.463Z,30.60
2022-10-20T16:40:29.422Z,27.50
2022-10-20T16:43:01.597Z,27.20
2022-10-20T16:45:31.016Z,29.90
2022-10-20T16:48:05.774Z,32.00
2022-10-20T16:50:43.886Z,29.10
2022-10-20T16:53:37.337Z,28.70
2022-10-20T16:56:15.424Z,25.80
2022-10-20T16:59:01.241Z,23.80
2022-10-20T17:01:35.132Z,22.00
2022-10-20T17:06:36.513Z,22.70
2022-10-20T17:09:18.357Z,21.40
2022-10-20T17:12:02.732Z,20.70
2022-10-20T17:14:36.327Z,18.90
2022-10-20T17:17:10.179Z,23.50
2022-10-20T17:19:45.489Z,22.40
2022-10-20T17:22:23.336Z,24.30
2022-10-20T17:27:41.763Z,28.20
2022-10-20T17:30:24.568Z,32.30
2022-10-20T17:33:01.298Z,34.20
2022-10-20T17:35:40.883Z,32.40
2022-10-20T17:38:20.748Z,33.40
2022-10-20T17:40:53.910Z,32.70
2022-10-20T17:43:35.475Z,29.90
2022-10-20T17:46:12.817Z,27.40
2022-10-20T17:48:47.140Z,26.40
2022-10-20T17:51:27.731Z,24.70
2022-10-20T17:54:07.269Z,24.60
2022-10-20T17:56:55.007Z,27.50
2022-10-20T17:59:26.365Z,27.10
2022-10-20T18:02:01.361Z,22.90
2022-10-20T18:04:32.256Z,22.00
2022-10-20T18:07:01.778Z,22.40
2022-10-20T18:09:31.677Z,22.10
2022-10-20T18:12:02.189Z,20.20
2022-10-20T18:14:31.333Z,21.30
2022-10-20T18:17:02.646Z,19.30
2022-10-20T18:19:34.407Z,21.20
2022-10-20T18:22:08.193Z,27.70
2022-10-20T18:24:37.409Z,34.80
2022-10-20T18:27:07.797Z,23.40
2022-10-20T18:29:36.808Z,24.30
2022-10-20T18:32:05.978Z,22.10
2022-10-20T18:34:35.111Z,24.10
2022-10-20T18:37:09.095Z,23.10
2022-10-20T18:39:39.325Z,22.80
2022-10-20T18:42:23.568Z,22.80
2022-10-20T18:44:52.801Z,25.30
2022-10-20T18:47:27.210Z,23.80
2022-10-20T18:49:56.278Z,28.30
2022-10-20T18:52:25.414Z,25.20
2022-10-20T18:54:54.678Z,27.00
2022-10-20T18:57:24.238Z,24.40
2022-10-20T18:59:53.480Z,22.20
2022-10-20T19:02:24.352Z,22.90
2022-10-20T19:05:05.139Z,23.10
2022-10-20T19:07:34.846Z,25.30
2022-10-20T19:10:10.758Z,24.60
2022-10-20T19:12:49.703Z,27.80
2022-10-20T19:15:31.618Z,28.70
2022-10-20T19:18:04.669Z,24.20
2022-10-20T19:20:44.661Z,23.90
2022-10-20T19:23:20.959Z,22.00
2022-10-20T19:26:28.079Z,18.40
2022-10-20T19:29:04.704Z,18.80
2022-10-20T19:31:41.972Z,20.50
2022-10-20T19:34:40.204Z,17.70
2022-10-20T19:37:11.690Z,17.20
2022-10-20T19:39:46.558Z,14.50
2022-10-20T19:42:15.962Z,16.00
2022-10-20T19:44:48.157Z,24.10
2022-10-20T19:47:19.851Z,18.80
2022-10-20T19:49:52.108Z,16.20
2022-10-20T19:52:23.944Z,19.60
2022-10-20T19:54:53.025Z,19.30
2022-10-20T19:57:22.449Z,19.40
2022-10-20T19:59:51.651Z,18.90
2022-10-20T20:02:24.624Z,17.10
2022-10-20T20:04:53.872Z,18.70
2022-10-20T20:07:23.191Z,15.00
2022-10-20T20:09:54.763Z,16.30
2022-10-20T20:12:26.505Z,17.30
2022-10-20T20:14:55.566Z,14.60
2022-10-20T20:17:24.746Z,16.40
2022-10-20T20:19:53.857Z,14.80
2022-10-20T20:22:23.032Z,14.90
2022-10-20T20:24:52.155Z,14.30
2022-10-20T20:27:21.400Z,15.80
2022-10-20T20:29:52.869Z,17.30
2022-10-20T20:32:22.088Z,15.30
2022-10-20T20:34:51.702Z,15.00
2022-10-20T20:37:21.367Z,14.60
2022-10-20T20:39:50.802Z,16.50
2022-10-20T20:42:20.051Z,14.80
2022-10-20T20:44:49.161Z,13.60
2022-10-20T20:47:20.727Z,15.60
2022-10-20T20:49:58.837Z,14.60
2022-10-20T20:52:34.416Z,16.40
2022-10-20T20:55:06.155Z,19.90
2022-10-20T20:57:47.443Z,18.50
2022-10-20T21:00:21.329Z,18.20
2022-10-20T21:02:55.884Z,16.90
2022-10-20T21:05:33.916Z,17.70
2022-10-20T21:08:03.341Z,16.70
2022-10-20T21:10:34.985Z,16.80
2022-10-20T21:13:09.831Z,15.20
2022-10-20T21:15:40.123Z,13.60
2022-10-20T21:18:10.385Z,12.00
2022-10-20T21:20:44.524Z,11.00
2022-10-20T21:23:13.988Z,11.60
2022-10-20T21:25:46.761Z,12.20
2022-10-20T21:28:21.916Z,11.10
2022-10-20T21:30:57.456Z,13.00
2022-10-20T21:33:30.667Z,13.40
2022-10-20T21:36:32.311Z,11.30
2022-10-20T21:39:11.599Z,12.70
2022-10-20T21:41:47.877Z,11.60
2022-10-20T21:44:23.550Z,14.90
2022-10-20T21:46:52.876Z,12.90
2022-10-20T21:49:34.144Z,12.10
2022-10-20T21:52:22.927Z,12.90
2022-10-20T21:54:54.581Z,14.60
2022-10-20T21:57:41.748Z,14.50
2022-10-20T22:00:19.458Z,18.30
2022-10-20T22:02:52.281Z,17.90
2022-10-20T22:05:25.088Z,15.80
2022-10-20T22:08:04.056Z,14.50
2022-10-20T22:10:52.246Z,13.90
2022-10-20T22:13:35.117Z,13.20
2022-10-20T22:16:09.367Z,13.70
2022-10-20T22:18:51.594Z,13.80
2022-10-20T22:21:34.883Z,13.80
2022-10-20T22:24:24.148Z,14.10
2022-10-20T22:27:31.412Z,14.20
2022-10-20T22:30:29.178Z,13.40
2022-10-20T22:33:30.874Z,11.40
2022-10-20T22:36:26.909Z,12.60
2022-10-20T22:39:26.966Z,12.80
2022-10-20T22:42:09.698Z,16.00
2022-10-20T22:44:52.028Z,15.80
2022-10-20T22:47:52.550Z,17.00
2022-10-20T22:50:33.506Z,18.90
2022-10-20T22:53:27.388Z,19.10
2022-10-20T22:56:22.733Z,22.90
2022-10-20T22:59:04.598Z,25.30
2022-10-20T23:01:46.901Z,23.90
2022-10-20T23:04:21.607Z,22.80
2022-10-20T23:06:56.000Z,18.30
2022-10-20T23:09:34.428Z,19.00
2022-10-20T23:12:10.742Z,18.10
2022-10-20T23:14:41.036Z,17.80
2022-10-20T23:17:10.155Z,16.30
2022-10-20T23:19:40.707Z,13.00
2022-10-20T23:22:12.192Z,14.70
2022-10-20T23:24:43.636Z,13.60
2022-10-20T23:27:12.847Z,14.70
2022-10-20T23:29:45.950Z,13.80
2022-10-20T23:32:15.186Z,14.40
2022-10-20T23:34:48.690Z,14.50
2022-10-20T23:37:19.867Z,16.80
2022-10-20T23:39:55.770Z,18.60
2022-10-20T23:42:26.282Z,17.50
2022-10-20T23:45:07.154Z,15.80
2022-10-20T23:47:38.062Z,13.90
2022-10-20T23:50:14.529Z,13.80
2022-10-20T23:52:58.328Z,14.00
2022-10-20T23:55:27.586Z,13.10
2022-10-20T23:57:58.694Z,13.80
